Time;durP1;ratioP1;P1;durP2;ratioP2;P2;SDS_P1;SDS_P2;PMS_P1;PMS_P2;Temp;Humidity;BMP_temperature;BMP_pressure;BME280_temperature;BME280_humidity;BME280_pressure;Samples;Min_cycle;Max_cycle;Signal;HPM_P1;HPM_P2
2023/08/25 00:02:16;;;;;;;16.08;13.88;;;20.00;99.90;;;;;;4992033;28;94442;-37
2023/08/25 00:04:42;;;;;;;16.98;13.85;;;20.00;99.90;;;;;;4994988;28;95116;-34
2023/08/25 00:07:08;;;;;;;14.85;13.43;;;20.00;99.90;;;;;;4995355;28;94174;-35
2023/08/25 00:09:34;;;;;;;14.38;12.82;;;20.00;99.90;;;;;;4994782;28;95267;-36
2023/08/25 00:11:59;;;;;;;16.42;14.88;;;20.00;99.90;;;;;;4995778;28;94667;-35
2023/08/25 00:14:25;;;;;;;15.60;14.10;;;19.90;99.90;;;;;;4994695;28;94515;-35
2023/08/25 00:16:51;;;;;;;15.98;14.32;;;19.90;99.90;;;;;;4994990;28;92909;-33
2023/08/25 00:19:17;;;;;;;15.93;13.85;;;19.90;99.90;;;;;;4995335;28;94805;-32
2023/08/25 00:21:44;;;;;;;18.15;15.32;;;19.80;99.90;;;;;;4995091;28;94353;-32
2023/08/25 00:24:10;;;;;;;16.05;14.35;;;19.90;99.90;;;;;;4993949;28;94193;-33
2023/08/25 00:26:37;;;;;;;16.90;15.18;;;19.90;99.90;;;;;;4994817;28;92723;-36
2023/08/25 00:29:03;;;;;;;15.55;14.10;;;19.80;99.90;;;;;;4993945;28;95701;-34
2023/08/25 00:31:28;;;;;;;16.20;14.55;;;19.90;99.90;;;;;;4994775;28;96286;-33
2023/08/25 00:33:54;;;;;;;17.88;16.10;;;19.80;99.90;;;;;;4994814;28;93104;-34
2023/08/25 00:36:20;;;;;;;16.52;14.82;;;19.80;99.90;;;;;;4994609;28;94136;-37
2023/08/25 00:38:46;;;;;;;18.45;16.38;;;19.80;99.90;;;;;;4994902;28;94781;-33
2023/08/25 00:41:12;;;;;;;19.35;17.52;;;19.80;99.90;;;;;;4994549;28;94976;-36
2023/08/25 00:43:39;;;;;;;17.77;15.98;;;19.70;99.90;;;;;;4995324;28;93973;-37
2023/08/25 00:46:04;;;;;;;16.23;14.75;;;19.70;99.90;;;;;;4995256;28;92142;-33
2023/08/25 00:48:30;;;;;;;19.95;15.40;;;19.70;99.90;;;;;;4993757;28;95263;-34
2023/08/25 00:50:57;;;;;;;18.67;15.98;;;19.70;99.90;;;;;;4994639;28;94554;-34
2023/08/25 00:53:24;;;;;;;18.92;15.05;;;19.60;99.90;;;;;;4994103;28;93960;-35
2023/08/25 00:55:50;;;;;;;18.17;16.35;;;19.60;99.90;;;;;;4994768;28;93556;-35
2023/08/25 00:58:16;;;;;;;16.85;15.13;;;19.60;99.90;;;;;;4994943;28;94786;-35
2023/08/25 01:00:44;;;;;;;19.20;17.08;;;19.60;99.90;;;;;;4997587;28;95197;-36
2023/08/25 01:03:10;;;;;;;19.23;17.25;;;19.60;99.90;;;;;;4992618;28;92565;-33
2023/08/25 01:05:39;;;;;;;21.30;19.10;;;19.60;99.90;;;;;;4991926;28;92416;-34
2023/08/25 01:08:05;;;;;;;17.05;15.30;;;19.60;99.90;;;;;;4992685;28;95124;-36
2023/08/25 01:10:59;;;;;;;18.42;16.50;;;19.60;99.90;;;;;;4990287;28;94463;-32
2023/08/25 01:13:53;;;;;;;18.95;16.90;;;19.60;99.90;;;;;;4985646;28;93929;-36
2023/08/25 01:16:24;;;;;;;18.83;16.95;;;19.60;99.90;;;;;;4990740;28;93364;-33
2023/08/25 01:18:50;;;;;;;18.17;16.27;;;19.60;99.90;;;;;;4992758;28;96035;-34
2023/08/25 01:21:16;;;;;;;19.10;17.25;;;19.60;99.90;;;;;;4992328;28;95413;-37
2023/08/25 01:24:15;;;;;;;19.40;17.42;;;19.60;99.90;;;;;;4978303;28;93883;-36
2023/08/25 01:26:41;;;;;;;19.55;17.55;;;19.70;99.90;;;;;;4986795;28;92926;-34
2023/08/25 01:29:07;;;;;;;19.42;17.52;;;19.60;99.90;;;;;;4997095;28;94538;-39
2023/08/25 01:31:33;;;;;;;19.95;18.02;;;19.60;99.90;;;;;;4996583;28;94522;-34
2023/08/25 01:34:01;;;;;;;19.40;16.55;;;19.60;99.90;;;;;;4995255;28;93303;-33
2023/08/25 01:36:38;;;;;;;21.50;19.27;;;19.60;99.90;;;;;;4988383;28;93670;-34
2023/08/25 01:39:15;;;;;;;20.38;18.23;;;19.60;99.90;;;;;;4980926;28;94451;-34
2023/08/25 01:41:41;;;;;;;18.75;17.02;;;19.60;99.90;;;;;;4978781;28;95490;-32
2023/08/25 01:44:09;;;;;;;19.63;17.38;;;19.60;99.90;;;;;;4985143;28;93668;-38
2023/08/25 01:46:37;;;;;;;21.17;18.00;;;19.60;99.90;;;;;;4985101;28;94193;-34
2023/08/25 01:49:04;;;;;;;18.48;16.58;;;19.60;99.90;;;;;;4985866;28;95113;-32
2023/08/25 01:51:30;;;;;;;23.40;19.03;;;19.60;99.90;;;;;;4995480;28;94909;-33
2023/08/25 01:53:56;;;;;;;20.73;18.58;;;19.60;99.90;;;;;;4996085;28;93506;-38
2023/08/25 01:56:23;;;;;;;20.52;18.25;;;19.60;99.90;;;;;;4996927;28;93165;-35
2023/08/25 01:58:51;;;;;;;21.33;18.00;;;19.60;99.90;;;;;;4995522;28;95386;-33
2023/08/25 02:01:17;;;;;;;22.70;18.58;;;19.70;99.90;;;;;;4977923;28;94371;-34
2023/08/25 02:03:43;;;;;;;21.42;19.30;;;19.70;99.90;;;;;;4990821;28;93264;-33
2023/08/25 02:06:09;;;;;;;23.20;19.00;;;19.60;99.90;;;;;;4983512;28;94095;-34
2023/08/25 02:08:35;;;;;;;21.83;19.63;;;19.60;99.90;;;;;;4989015;28;96356;-35
2023/08/25 02:11:01;;;;;;;22.58;19.90;;;19.60;99.90;;;;;;4983524;28;95189;-34
2023/08/25 02:13:27;;;;;;;21.83;19.67;;;19.60;99.90;;;;;;4982922;28;94603;-34
2023/08/25 02:15:53;;;;;;;22.52;20.25;;;19.60;99.90;;;;;;4983503;28;94148;-36
2023/08/25 02:18:19;;;;;;;22.35;19.05;;;19.60;99.90;;;;;;4982710;28;95411;-34
2023/08/25 02:20:44;;;;;;;21.75;18.15;;;19.70;99.90;;;;;;4983779;28;94911;-33
2023/08/25 02:23:10;;;;;;;19.65;17.75;;;19.70;99.90;;;;;;4977651;28;92545;-33
2023/08/25 02:25:36;;;;;;;24.77;21.38;;;19.60;99.90;;;;;;4976215;28;91913;-36
2023/08/25 02:28:02;;;;;;;20.77;17.38;;;19.60;99.90;;;;;;4978045;28;94950;-34
2023/08/25 02:30:28;;;;;;;24.88;21.08;;;19.70;99.90;;;;;;4976477;28;96557;-39
2023/08/25 02:32:56;;;;;;;20.88;18.77;;;19.70;99.90;;;;;;4990191;28;93382;-33
2023/08/25 02:35:22;;;;;;;25.40;21.58;;;19.70;99.90;;;;;;4977891;28;93662;-33
2023/08/25 02:38:05;;;;;;;26.52;21.10;;;19.70;99.90;;;;;;4977821;28;94805;-35
2023/08/25 02:40:32;;;;;;;23.58;20.90;;;19.70;99.90;;;;;;4978054;28;94130;-37
2023/08/25 02:43:00;;;;;;;20.77;18.65;;;19.60;99.90;;;;;;4978168;28;93493;-32
2023/08/25 02:45:26;;;;;;;23.75;19.98;;;19.60;99.90;;;;;;4992844;28;92644;-38
2023/08/25 02:47:52;;;;;;;25.45;21.60;;;19.60;99.90;;;;;;4996812;28;95032;-34
2023/08/25 02:50:18;;;;;;;21.58;19.38;;;19.50;99.90;;;;;;4995488;28;95374;-32
2023/08/25 02:52:44;;;;;;;24.83;21.35;;;19.50;99.90;;;;;;4996520;28;93134;-34
2023/08/25 02:55:14;;;;;;;30.02;22.23;;;19.50;99.90;;;;;;4995887;28;93113;-38
2023/08/25 02:57:40;;;;;;;24.35;21.88;;;19.50;99.90;;;;;;4985169;28;95411;-33
2023/08/25 03:00:08;;;;;;;25.00;21.40;;;19.50;99.90;;;;;;4994225;28;95229;-33
2023/08/25 03:02:34;;;;;;;26.75;21.98;;;19.50;99.90;;;;;;4992233;28;92089;-37
2023/08/25 03:04:59;;;;;;;24.23;21.83;;;19.50;99.90;;;;;;4976349;28;94474;-38
2023/08/25 03:07:25;;;;;;;29.88;20.70;;;19.40;99.90;;;;;;4992479;28;95257;-34
2023/08/25 03:09:51;;;;;;;23.05;20.58;;;19.30;99.90;;;;;;4995782;28;94523;-37
2023/08/25 03:12:16;;;;;;;26.55;22.13;;;19.30;99.90;;;;;;4995514;28;94573;-35
2023/08/25 03:14:42;;;;;;;25.67;21.55;;;19.30;99.90;;;;;;4996395;28;92862;-34
2023/08/25 03:17:09;;;;;;;24.30;21.75;;;19.20;99.90;;;;;;4995271;28;94050;-36
2023/08/25 03:19:37;;;;;;;25.97;23.27;;;19.20;99.90;;;;;;4995647;28;96779;-34
2023/08/25 03:22:03;;;;;;;23.33;20.33;;;19.20;99.90;;;;;;4995440;28;94758;-34
2023/08/25 03:24:29;;;;;;;24.75;22.20;;;19.20;99.90;;;;;;4995359;28;93088;-34
2023/08/25 03:26:57;;;;;;;26.20;22.55;;;19.20;99.90;;;;;;4995939;28;95081;-33
2023/08/25 03:29:22;;;;;;;;;;;19.20;99.90;;;;;;4995236;28;96342;-36
2023/08/25 03:31:48;;;;;;;26.48;21.30;;;19.10;99.90;;;;;;4997872;28;94012;-34
2023/08/25 03:34:14;;;;;;;24.58;22.00;;;19.10;99.90;;;;;;4977864;28;94908;-33
2023/08/25 03:36:39;;;;;;;23.38;20.77;;;19.10;99.90;;;;;;4995253;28;95463;-33
2023/08/25 03:39:05;;;;;;;24.60;21.88;;;19.10;99.90;;;;;;4995991;28;94135;-36
2023/08/25 03:41:31;;;;;;;23.23;20.83;;;19.10;99.90;;;;;;4995446;28;92591;-35
2023/08/25 03:43:56;;;;;;;30.63;23.60;;;19.00;99.90;;;;;;4995208;28;94545;-34
2023/08/25 03:46:22;;;;;;;25.63;22.17;;;19.00;99.90;;;;;;4995015;28;95458;-33
2023/08/25 03:48:48;;;;;;;26.73;23.95;;;18.90;99.90;;;;;;4994301;28;95971;-38
2023/08/25 03:51:13;;;;;;;27.77;24.77;;;18.90;99.90;;;;;;4995346;28;93038;-35
2023/08/25 03:53:39;;;;;;;27.08;23.40;;;18.80;99.90;;;;;;4993974;28;94773;-35
2023/08/25 03:56:05;;;;;;;25.60;22.05;;;18.90;99.90;;;;;;4995575;28;94837;-34
2023/08/25 03:58:30;;;;;;;30.58;22.75;;;18.80;99.90;;;;;;4980938;28;94663;-35
2023/08/25 04:00:56;;;;;;;23.25;20.77;;;18.80;99.90;;;;;;4994780;28;93389;-33
2023/08/25 04:03:22;;;;;;;28.25;23.08;;;18.80;99.90;;;;;;4994102;28;92826;-34
2023/08/25 04:05:48;;;;;;;26.10;23.13;;;18.80;99.90;;;;;;4994894;28;94890;-36
2023/08/25 04:08:14;;;;;;;26.73;22.63;;;18.80;99.90;;;;;;4993479;28;95007;-33
2023/08/25 04:10:41;;;;;;;28.50;24.88;;;18.80;99.90;;;;;;4993960;28;95466;-33
2023/08/25 04:13:07;;;;;;;27.52;24.65;;;18.80;99.90;;;;;;4993563;28;94176;-37
2023/08/25 04:15:33;;;;;;;31.48;27.05;;;18.70;99.90;;;;;;4993888;28;94751;-36
2023/08/25 04:17:59;;;;;;;31.05;27.05;;;18.70;99.90;;;;;;4993813;28;95005;-35
2023/08/25 04:20:25;;;;;;;29.13;24.98;;;18.70;99.90;;;;;;4984469;28;93239;-34
2023/08/25 04:22:50;;;;;;;38.78;28.88;;;18.70;99.90;;;;;;4992526;28;94487;-35
2023/08/25 04:25:16;;;;;;;34.05;27.65;;;18.70;99.90;;;;;;4993471;28;94678;-38
2023/08/25 04:27:42;;;;;;;36.08;29.30;;;18.70;99.90;;;;;;4991832;28;94562;-32
2023/08/25 04:30:08;;;;;;;33.92;29.73;;;18.70;99.90;;;;;;4989792;28;94919;-35
2023/08/25 04:32:34;;;;;;;34.70;29.88;;;18.60;99.90;;;;;;4988684;28;93100;-33
2023/08/25 04:34:59;;;;;;;37.33;30.25;;;18.70;99.90;;;;;;4993024;28;96636;-34
2023/08/25 04:37:25;;;;;;;39.85;32.30;;;18.70;99.90;;;;;;4994747;28;95496;-32
2023/08/25 04:39:52;;;;;;;39.30;31.95;;;18.70;99.90;;;;;;4997990;28;92687;-34
2023/08/25 04:42:18;;;;;;;40.88;33.38;;;18.70;99.90;;;;;;4991828;28;94727;-33
2023/08/25 04:44:44;;;;;;;42.65;33.90;;;18.70;99.90;;;;;;4993931;28;94658;-35
2023/08/25 04:47:10;;;;;;;44.53;34.78;;;18.70;99.90;;;;;;4973801;28;94867;-33
2023/08/25 04:49:35;;;;;;;46.03;35.33;;;18.70;99.90;;;;;;4994193;28;93605;-35
2023/08/25 04:52:01;;;;;;;43.92;34.30;;;18.70;99.90;;;;;;4992254;28;91749;-37
2023/08/25 04:54:27;;;;;;;42.33;35.38;;;18.70;99.90;;;;;;4994432;28;94803;-35
2023/08/25 04:56:52;;;;;;;51.33;35.22;;;18.70;99.90;;;;;;4992271;28;94799;-35
2023/08/25 04:59:18;;;;;;;47.05;37.53;;;18.80;99.90;;;;;;4995364;28;94700;-33
2023/08/25 05:01:43;;;;;;;54.22;35.38;;;18.80;99.90;;;;;;4995236;28;94156;-36
2023/08/25 05:04:11;;;;;;;46.60;36.20;;;18.80;99.90;;;;;;4994726;28;95292;-33
2023/08/25 05:06:37;;;;;;;52.63;37.57;;;18.80;99.90;;;;;;4992536;28;94870;-32
2023/08/25 05:09:03;;;;;;;47.75;36.80;;;18.90;99.90;;;;;;4994719;28;94225;-38
2023/08/25 05:11:29;;;;;;;45.40;35.55;;;18.90;99.90;;;;;;4994870;28;93552;-34
2023/08/25 05:13:54;;;;;;;47.88;36.67;;;18.80;99.90;;;;;;4985788;28;94961;-33
2023/08/25 05:16:20;;;;;;;50.20;36.92;;;18.90;99.90;;;;;;4992488;28;93486;-35
2023/08/25 05:18:46;;;;;;;52.53;38.75;;;18.90;99.90;;;;;;4986765;28;94466;-34
2023/08/25 05:21:14;;;;;;;50.25;38.90;;;18.90;99.90;;;;;;4994330;28;93592;-39
2023/08/25 05:23:43;;;;;;;55.00;38.55;;;18.90;99.90;;;;;;4994907;28;96516;-37
2023/08/25 05:26:08;;;;;;;54.85;40.22;;;18.90;99.90;;;;;;4982816;28;95627;-34
2023/08/25 05:28:34;;;;;;;46.83;37.03;;;18.90;99.90;;;;;;4967570;28;93358;-33
2023/08/25 05:30:59;;;;;;;49.67;40.30;;;18.90;99.90;;;;;;4979046;28;94353;-36
2023/08/25 05:33:25;;;;;;;50.00;40.33;;;18.90;99.90;;;;;;4977525;28;95122;-38
2023/08/25 05:35:51;;;;;;;54.17;40.92;;;18.90;99.90;;;;;;4977409;28;95487;-39
2023/08/25 05:38:16;;;;;;;51.55;39.50;;;18.90;99.90;;;;;;4977130;28;93507;-34
2023/08/25 05:40:42;;;;;;;48.25;37.53;;;19.00;99.90;;;;;;4989928;28;92929;-36
2023/08/25 05:43:07;;;;;;;55.70;41.35;;;19.00;99.90;;;;;;4977749;28;94953;-35
2023/08/25 05:45:33;;;;;;;55.70;41.35;;;19.10;99.90;;;;;;4981496;28;94551;-33
2023/08/25 05:47:59;;;;;;;60.15;43.08;;;19.10;99.90;;;;;;4984824;28;94346;-33
2023/08/25 05:50:25;;;;;;;54.22;41.78;;;19.10;99.90;;;;;;4977866;28;92930;-35
2023/08/25 05:52:53;;;;;;;54.40;42.22;;;19.10;99.90;;;;;;4975019;28;95063;-34
2023/08/25 05:55:19;;;;;;;55.15;40.22;;;19.10;99.90;;;;;;4978070;28;95126;-35
2023/08/25 05:57:44;;;;;;;53.38;40.65;;;19.10;99.90;;;;;;4976505;28;92779;-36
2023/08/25 06:00:11;;;;;;;53.05;40.55;;;19.10;99.90;;;;;;4978893;28;94323;-33
2023/08/25 06:02:36;;;;;;;50.88;39.53;;;19.10;99.90;;;;;;4991036;28;94551;-35
2023/08/25 06:05:03;;;;;;;49.88;38.47;;;19.10;99.90;;;;;;4994746;28;94746;-34
2023/08/25 06:07:28;;;;;;;47.70;37.63;;;19.10;99.90;;;;;;4994224;28;92135;-39
2023/08/25 06:09:54;;;;;;;51.40;39.60;;;19.20;99.90;;;;;;4994733;28;94137;-35
2023/08/25 06:12:20;;;;;;;57.85;40.63;;;19.20;99.90;;;;;;4992802;28;95966;-38
2023/08/25 06:14:46;;;;;;;49.20;36.30;;;19.20;99.90;;;;;;4994979;28;95509;-37
2023/08/25 06:17:11;;;;;;;43.83;33.60;;;19.30;99.90;;;;;;4992637;28;94130;-37
2023/08/25 06:19:38;;;;;;;47.88;38.00;;;19.30;99.90;;;;;;4995045;28;92465;-35
2023/08/25 06:22:03;;;;;;;50.22;38.50;;;19.30;99.90;;;;;;4982969;28;94336;-34
2023/08/25 06:24:29;;;;;;;50.40;39.05;;;19.30;99.90;;;;;;4985869;28;94823;-38
2023/08/25 06:26:55;;;;;;;40.88;32.97;;;19.50;99.90;;;;;;4984224;28;94078;-32
2023/08/25 06:29:20;;;;;;;49.45;36.10;;;19.50;99.90;;;;;;4986382;28;93477;-33
2023/08/25 06:31:46;;;;;;;57.13;38.33;;;19.60;99.90;;;;;;4980095;28;94473;-37
2023/08/25 06:34:15;;;;;;;44.15;34.55;;;;;;;;;;4985716;28;94342;-35
2023/08/25 06:36:41;;;;;;;50.65;37.38;;;;;;;;;;4986358;28;94188;-34
2023/08/25 06:39:07;;;;;;;45.20;37.33;;;;;;;;;;4988849;28;93834;-38
2023/08/25 06:41:33;;;;;;;50.33;35.17;;;;;;;;;;4974892;28;94973;-34
2023/08/25 06:43:59;;;;;;;47.42;38.03;;;;;;;;;;4975441;28;95194;-33
2023/08/25 06:46:26;;;;;;;48.10;37.20;;;;;;;;;;4975478;28;94561;-38
2023/08/25 06:48:52;;;;;;;49.83;39.78;;;;;;;;;;4987828;28;93433;-33
2023/08/25 06:51:18;;;;;;;49.67;37.83;;;;;;;;;;4974332;28;95294;-41
2023/08/25 06:53:44;;;;;;;51.10;37.40;;;;;;;;;;4975218;28;94461;-32
2023/08/25 06:56:10;;;;;;;47.47;36.10;;;;;;;;;;4973755;28;93210;-35
2023/08/25 06:58:36;;;;;;;48.97;38.45;;;;;;;;;;4975724;28;94184;-39
2023/08/25 07:01:03;;;;;;;46.67;34.28;;;;;;;;;;4977352;28;95193;-36
2023/08/25 07:03:29;;;;;;;47.90;37.88;;;;;;;;;;4990470;28;95758;-33
2023/08/25 07:05:58;;;;;;;47.78;35.25;;;;;;;;;;4994158;28;93308;-37
2023/08/25 07:08:25;;;;;;;51.67;40.00;;;;;;;;;;4993844;28;94404;-36
2023/08/25 07:10:51;;;;;;;45.78;37.53;;;;;;;;;;4993781;28;95182;-35
2023/08/25 07:13:17;;;;;;;45.40;35.88;;;;;;;;;;4993456;28;94249;-33
2023/08/25 07:15:43;;;;;;;45.17;35.15;;;;;;;;;;4994397;28;94539;-37
2023/08/25 07:18:10;;;;;;;44.72;35.33;;;;;;;;;;4993081;28;92392;-35
2023/08/25 07:20:36;;;;;;;49.92;36.53;;;;;;;;;;4993443;28;94573;-36
2023/08/25 07:23:02;;;;;;;48.85;37.53;;;;;;;;;;4992630;28;94261;-35
2023/08/25 07:25:28;;;;;;;51.08;35.70;;;;;;;;;;4992579;28;95376;-36
2023/08/25 07:27:54;;;;;;;50.08;36.72;;;20.90;99.90;;;;;;4993100;28;92931;-35
2023/08/25 07:30:19;;;;;;;45.30;35.70;;;20.80;99.90;;;;;;4992952;28;96064;-36
2023/08/25 07:32:45;;;;;;;40.15;35.30;;;20.70;99.90;;;;;;4991939;28;94865;-32
2023/08/25 07:35:13;;;;;;;42.05;33.45;;;20.80;99.90;;;;;;4992525;28;93400;-37
2023/08/25 07:37:41;;;;;;;38.10;31.88;;;20.80;99.90;;;;;;4991351;28;93581;-36
2023/08/25 07:40:07;;;;;;;46.85;34.97;;;20.70;99.90;;;;;;4991827;28;94684;-35
2023/08/25 07:42:33;;;;;;;40.42;32.80;;;20.70;99.90;;;;;;4985633;28;96385;-35
2023/08/25 07:44:58;;;;;;;44.55;34.08;;;20.70;99.90;;;;;;4985008;28;95649;-32
2023/08/25 07:47:24;;;;;;;46.70;31.92;;;20.80;99.90;;;;;;4979883;28;94070;-36
2023/08/25 07:49:50;;;;;;;48.63;35.72;;;20.80;99.90;;;;;;4984341;28;96389;-34
2023/08/25 07:52:15;;;;;;;44.50;35.72;;;20.90;99.90;;;;;;4991568;28;95245;-37
2023/08/25 07:54:42;;;;;;;39.08;31.92;;;20.80;99.90;;;;;;4993317;28;92991;-35
2023/08/25 07:57:08;;;;;;;48.92;35.28;;;20.80;99.90;;;;;;4991672;28;92860;-36
2023/08/25 07:59:34;;;;;;;51.60;35.25;;;20.90;99.90;;;;;;4992337;28;95170;-34
2023/08/25 08:01:59;;;;;;;53.67;39.55;;;20.90;99.90;;;;;;4989706;28;94853;-35
2023/08/25 08:04:25;;;;;;;48.30;35.38;;;21.00;99.90;;;;;;4992238;28;92210;-33
2023/08/25 08:06:51;;;;;;;41.08;32.10;;;21.10;99.90;;;;;;4993679;28;93678;-36
2023/08/25 08:09:17;;;;;;;45.00;32.70;;;21.10;99.90;;;;;;4991682;28;94582;-36
2023/08/25 08:11:43;;;;;;;118.60;51.40;;;21.20;99.90;;;;;;4991899;28;94616;-34
2023/08/25 08:14:09;;;;;;;64.55;34.55;;;21.30;99.90;;;;;;4991969;28;94104;-34
2023/08/25 08:16:35;;;;;;;52.88;35.45;;;21.30;99.90;;;;;;4992208;28;92619;-34
2023/08/25 08:19:01;;;;;;;43.03;32.75;;;21.30;99.90;;;;;;4991967;28;94780;-35
2023/08/25 08:21:26;;;;;;;50.17;35.53;;;21.30;99.90;;;;;;4992265;28;96306;-31
2023/08/25 08:23:52;;;;;;;52.67;37.08;;;21.30;99.90;;;;;;4991660;28;93339;-36
2023/08/25 08:26:18;;;;;;;55.70;34.03;;;21.30;99.90;;;;;;5041241;22;93011;-36
2023/08/25 08:28:43;;;;;;;44.05;33.20;;;21.30;99.90;;;;;;4991856;28;94803;-37
2023/08/25 08:31:09;;;;;;;44.90;35.13;;;21.30;99.90;;;;;;4995683;28;94236;-35
2023/08/25 08:33:35;;;;;;;42.67;32.67;;;21.30;99.90;;;;;;4991820;28;94158;-35
2023/08/25 08:36:02;;;;;;;39.72;31.33;;;21.30;99.90;;;;;;4987995;28;94512;-38
2023/08/25 08:38:28;;;;;;;37.05;30.33;;;21.20;99.90;;;;;;4990698;28;96580;-35
2023/08/25 08:41:01;;;;;;;49.72;35.50;;;21.30;99.90;;;;;;4992255;28;95553;-34
2023/08/25 08:43:27;;;;;;;45.92;31.77;;;21.30;99.90;;;;;;4991651;28;94560;-38
2023/08/25 08:45:54;;;;;;;39.55;32.05;;;21.30;99.90;;;;;;4991063;28;92765;-37
2023/08/25 08:48:21;;;;;;;44.95;33.45;;;21.20;99.90;;;;;;4990841;28;94703;-37
2023/08/25 08:50:47;;;;;;;36.40;29.55;;;21.20;99.90;;;;;;4991727;28;93874;-34
2023/08/25 08:53:14;;;;;;;40.38;30.30;;;21.20;99.90;;;;;;4991025;28;92690;-34
2023/08/25 08:55:42;;;;;;;42.03;30.17;;;21.20;99.90;;;;;;4991889;28;92719;-35
2023/08/25 08:58:07;;;;;;;43.70;34.28;;;21.20;99.90;;;;;;4991454;28;94737;-37
2023/08/25 09:00:33;;;;;;;39.53;31.27;;;21.20;99.90;;;;;;4990637;28;94741;-35
2023/08/25 09:03:02;;;;;;;37.47;30.88;;;21.20;99.90;;;;;;4988293;28;93825;-34
2023/08/25 09:05:30;;;;;;;45.67;34.30;;;21.20;99.90;;;;;;4990577;28;94335;-38
2023/08/25 09:08:07;;;;;;;35.90;29.80;;;21.20;99.90;;;;;;4991422;28;94870;-36
2023/08/25 09:10:33;;;;;;;58.78;34.88;;;21.30;99.90;;;;;;4990980;28;93702;-34
2023/08/25 09:12:59;;;;;;;41.30;30.45;;;21.20;99.90;;;;;;4991427;28;94338;-32
2023/08/25 09:15:29;;;;;;;38.65;30.30;;;21.30;99.90;;;;;;4991250;28;93004;-34
2023/08/25 09:18:03;;;;;;;42.30;32.20;;;21.10;99.90;;;;;;4991105;28;94487;-36
2023/08/25 09:20:38;;;;;;;41.53;30.42;;;21.10;99.90;;;;;;4992987;28;95622;-37
2023/08/25 09:23:04;;;;;;;42.03;31.35;;;21.10;99.90;;;;;;4995059;28;94723;-37
2023/08/25 09:25:32;;;;;;;51.63;31.55;;;21.20;99.90;;;;;;4994146;28;94552;-33
2023/08/25 09:27:59;;;;;;;40.13;28.37;;;21.10;99.90;;;;;;4976031;28;95765;-33
2023/08/25 09:30:42;;;;;;;42.23;30.03;;;21.20;99.90;;;;;;4993239;28;96593;-35
2023/08/25 09:33:18;;;;;;;35.65;29.65;;;21.20;99.90;;;;;;4990052;28;94347;-38
2023/08/25 09:35:44;;;;;;;32.22;27.27;;;21.10;99.90;;;;;;4994645;28;94490;-32
2023/08/25 09:38:22;;;;;;;40.38;32.30;;;21.10;99.90;;;;;;4995119;28;94591;-33
2023/08/25 09:40:48;;;;;;;43.92;31.13;;;21.10;99.90;;;;;;4976730;28;94494;-36
2023/08/25 09:43:14;;;;;;;40.88;32.30;;;21.10;99.90;;;;;;4993984;28;92851;-36
2023/08/25 09:45:40;;;;;;;44.17;33.53;;;21.20;99.90;;;;;;4994514;28;92811;-37
2023/08/25 09:48:13;;;;;;;40.17;33.45;;;21.10;99.90;;;;;;4994198;28;96521;-35
2023/08/25 09:50:43;;;;;;;42.80;33.22;;;21.20;99.90;;;;;;4994399;28;95531;-35
2023/08/25 09:53:12;;;;;;;40.33;33.03;;;21.20;99.90;;;;;;4993586;28;93833;-39
2023/08/25 09:55:39;;;;;;;40.45;33.00;;;21.20;99.90;;;;;;4987541;28;93308;-36
2023/08/25 09:58:11;;;;;;;41.28;34.05;;;21.20;99.90;;;;;;4976296;28;93826;-35
2023/08/25 10:00:39;;;;;;;35.95;32.10;;;21.20;99.90;;;;;;4976434;28;94206;-34
2023/08/25 10:03:08;;;;;;;40.88;32.50;;;21.20;99.90;;;;;;4986940;28;92158;-35
2023/08/25 10:05:36;;;;;;;46.88;34.60;;;21.10;99.90;;;;;;4989398;28;92205;-33
2023/08/25 10:08:02;;;;;;;41.03;32.30;;;21.10;99.90;;;;;;4994407;28;94574;-34
2023/08/25 10:10:33;;;;;;;35.38;29.75;;;21.00;99.90;;;;;;4989572;28;94489;-35
2023/08/25 10:13:00;;;;;;;43.15;33.38;;;21.00;99.90;;;;;;4992309;28;93175;-34
2023/08/25 10:15:28;;;;;;;42.63;31.05;;;21.00;99.90;;;;;;4989619;28;92963;-34
2023/08/25 10:17:59;;;;;;;36.83;28.45;;;21.00;99.90;;;;;;4992551;28;94634;-34
2023/08/25 10:20:26;;;;;;;35.20;28.70;;;21.00;99.90;;;;;;4990525;28;95761;-39
2023/08/25 10:22:52;;;;;;;44.35;32.55;;;21.00;99.90;;;;;;4992662;28;95510;-33
2023/08/25 10:25:18;;;;;;;37.13;30.92;;;20.90;99.90;;;;;;4989741;28;93174;-34
2023/08/25 10:27:45;;;;;;;40.83;32.22;;;20.90;99.90;;;;;;4991696;28;94787;-35
2023/08/25 10:30:11;;;;;;;41.65;32.92;;;21.00;99.90;;;;;;4991852;28;95030;-33
2023/08/25 10:32:55;;;;;;;43.13;32.03;;;21.10;99.90;;;;;;4990221;28;94633;-34
2023/08/25 10:35:43;;;;;;;46.08;34.13;;;21.10;99.90;;;;;;4983231;28;93017;-35
2023/08/25 10:38:17;;;;;;;48.63;35.13;;;21.20;99.90;;;;;;4990600;28;94849;-34
2023/08/25 10:40:48;;;;;;;39.22;32.08;;;21.30;99.90;;;;;;4990187;28;94620;-35
2023/08/25 10:43:15;;;;;;;40.65;31.98;;;21.30;99.90;;;;;;4980953;28;94069;-34
2023/08/25 10:45:42;;;;;;;44.80;35.08;;;21.40;99.90;;;;;;4990647;28;94036;-36
2023/08/25 10:48:10;;;;;;;40.47;33.90;;;21.50;99.90;;;;;;4992622;28;94347;-34
2023/08/25 10:50:40;;;;;;;43.70;32.67;;;21.50;99.90;;;;;;4992807;28;95371;-32
2023/08/25 10:53:38;;;;;;;38.80;30.88;;;21.60;99.90;;;;;;4993705;28;93870;-33
2023/08/25 10:56:17;;;;;;;34.55;27.02;;;21.60;99.90;;;;;;4994272;28;94627;-35
2023/08/25 10:58:57;;;;;;;26.02;22.08;;;21.70;99.90;;;;;;4993618;28;94900;-34
2023/08/25 11:01:33;;;;;;;32.00;24.27;;;21.70;99.90;;;;;;4985343;28;95014;-36
2023/08/25 11:04:06;;;;;;;25.35;20.83;;;21.80;99.90;;;;;;4989138;28;93894;-35
2023/08/25 11:06:49;;;;;;;30.60;24.02;;;22.00;99.90;;;;;;4988431;28;95070;-34
2023/08/25 11:09:17;;;;;;;30.65;23.75;;;22.10;99.90;;;;;;4988062;28;95674;-37
2023/08/25 11:11:45;;;;;;;31.95;19.65;;;22.20;99.90;;;;;;4988586;28;95834;-34
2023/08/25 11:14:11;;;;;;;27.70;23.20;;;22.30;99.90;;;;;;4988524;28;94592;-38
2023/08/25 11:16:40;;;;;;;29.13;22.05;;;22.50;99.90;;;;;;4989078;28;92351;-35
2023/08/25 11:19:09;;;;;;;25.88;21.20;;;22.50;99.90;;;;;;4984764;28;95333;-36
2023/08/25 11:21:35;;;;;;;27.00;21.02;;;22.50;99.90;;;;;;4987126;28;93235;-34
2023/08/25 11:24:01;;;;;;;16.08;13.32;;;22.60;99.90;;;;;;4970975;28;93886;-37
2023/08/25 11:26:26;;;;;;;16.52;13.02;;;22.60;99.90;;;;;;4987110;28;92443;-35
2023/08/25 11:28:54;;;;;;;18.73;14.77;;;22.70;99.90;;;;;;4985285;28;94515;-36
2023/08/25 11:31:21;;;;;;;25.57;19.10;;;22.80;99.90;;;;;;4986578;28;94614;-33
2023/08/25 11:33:47;;;;;;;25.50;21.52;;;22.80;99.90;;;;;;4986539;28;94422;-35
2023/08/25 11:36:15;;;;;;;21.73;18.52;;;22.90;99.90;;;;;;4985597;28;94890;-34
2023/08/25 11:38:45;;;;;;;22.92;18.92;;;22.90;99.90;;;;;;4985954;28;94542;-33
2023/08/25 11:41:11;;;;;;;19.73;15.93;;;22.80;99.90;;;;;;4987526;28;95161;-33
2023/08/25 11:43:37;;;;;;;22.17;18.00;;;22.90;99.90;;;;;;4988321;28;94284;-36
2023/08/25 11:46:06;;;;;;;18.25;15.82;;;22.90;99.90;;;;;;4983849;28;92808;-34
2023/08/25 11:48:33;;;;;;;16.35;14.75;;;22.80;99.90;;;;;;4991974;28;95471;-37
2023/08/25 11:50:59;;;;;;;19.75;16.70;;;22.70;99.90;;;;;;4992796;28;94427;-33
2023/08/25 11:53:25;;;;;;;19.75;17.65;;;22.80;99.90;;;;;;4992879;28;92871;-34
2023/08/25 11:55:58;;;;;;;20.95;18.55;;;23.00;99.90;;;;;;4983455;28;94578;-37
2023/08/25 11:58:29;;;;;;;21.77;19.52;;;23.10;99.90;;;;;;4972163;28;96176;-36
2023/08/25 12:01:06;;;;;;;25.33;18.27;;;23.10;99.90;;;;;;4975894;28;96041;-32
2023/08/25 12:03:33;;;;;;;22.07;18.67;;;23.20;99.90;;;;;;4993259;28;94651;-36
2023/08/25 12:05:59;;;;;;;23.55;19.17;;;23.10;99.90;;;;;;4974480;28;94008;-36
2023/08/25 12:08:25;;;;;;;16.30;14.60;;;23.10;99.90;;;;;;4972671;28;95062;-34
2023/08/25 12:10:54;;;;;;;12.77;11.48;;;23.10;99.90;;;;;;4985975;28;94623;-38
2023/08/25 12:13:31;;;;;;;11.55;10.35;;;23.10;99.90;;;;;;4985382;28;94002;-34
2023/08/25 12:15:58;;;;;;;10.13;8.40;;;23.10;99.90;;;;;;4972911;28;92286;-37
2023/08/25 12:18:32;;;;;;;12.65;9.02;;;23.10;99.90;;;;;;4985702;28;95137;-35
2023/08/25 12:20:58;;;;;;;7.65;6.65;;;23.20;99.90;;;;;;4992954;28;95587;-33
2023/08/25 12:23:24;;;;;;;7.70;6.93;;;23.00;99.90;;;;;;4991690;28;94621;-34
2023/08/25 12:25:49;;;;;;;5.93;5.18;;;23.10;99.90;;;;;;4991273;28;92866;-34
2023/08/25 12:28:17;;;;;;;5.05;4.55;;;23.10;99.90;;;;;;4989654;28;94832;-35
2023/08/25 12:30:42;;;;;;;3.23;2.93;;;23.00;99.90;;;;;;4991263;28;94203;-33
2023/08/25 12:33:08;;;;;;;2.53;2.28;;;22.90;99.90;;;;;;4991851;28;93076;-36
2023/08/25 12:35:34;;;;;;;3.10;2.80;;;22.70;99.90;;;;;;4990872;28;94986;-34
2023/08/25 12:38:00;;;;;;;5.05;2.67;;;22.50;99.90;;;;;;4990425;28;93669;-35